sensor_id;sensor_type;location;lat;lon;timestamp;pressure;altitude;pressure_sealevel;temperature;humidity
33422;BME280;19763;55.798;37.782;2023-08-30T00:00:41;39008.59;;;-145.63;55.73
33422;BME280;19763;55.798;37.782;2023-08-30T00:03:07;39034.03;;;-145.63;55.15
33422;BME280;19763;55.798;37.782;2023-08-30T00:05:33;39061.41;;;-145.63;55.09
33422;BME280;19763;55.798;37.782;2023-08-30T00:07:59;39043.81;;;-145.63;55.19
33422;BME280;19763;55.798;37.782;2023-08-30T00:10:25;39032.06;;;-145.63;55.36
33422;BME280;19763;55.798;37.782;2023-08-30T00:12:50;39049.66;;;-145.63;55.61
33422;BME280;19763;55.798;37.782;2023-08-30T00:15:16;39041.84;;;-145.63;55.35
33422;BME280;19763;55.798;37.782;2023-08-30T00:17:42;39012.50;;;-145.63;55.30
33422;BME280;19763;55.798;37.782;2023-08-30T00:20:08;39059.44;;;-145.63;55.34
33422;BME280;19763;55.798;37.782;2023-08-30T00:22:37;39020.34;;;-145.63;55.41
33422;BME280;19763;55.798;37.782;2023-08-30T00:25:03;39037.94;;;-145.63;55.59
33422;BME280;19763;55.798;37.782;2023-08-30T00:27:29;39028.16;;;-145.63;55.50
33422;BME280;19763;55.798;37.782;2023-08-30T00:29:55;39022.28;;;-145.63;55.61
33422;BME280;19763;55.798;37.782;2023-08-30T00:32:20;39051.63;;;-145.63;55.72
33422;BME280;19763;55.798;37.782;2023-08-30T00:34:50;39037.94;;;-145.63;55.64
33422;BME280;19763;55.798;37.782;2023-08-30T00:37:16;39065.31;;;-145.63;55.83
33422;BME280;19763;55.798;37.782;2023-08-30T00:39:43;39034.03;;;-145.63;55.51
33422;BME280;19763;55.798;37.782;2023-08-30T00:42:09;39037.94;;;-145.63;55.72
33422;BME280;19763;55.798;37.782;2023-08-30T00:44:34;39051.63;;;-145.63;55.53
33422;BME280;19763;55.798;37.782;2023-08-30T00:47:01;38771.97;;;-145.63;55.78
33422;BME280;19763;55.798;37.782;2023-08-30T00:49:31;39020.34;;;-145.63;55.61
33422;BME280;19763;55.798;37.782;2023-08-30T00:51:59;39090.75;;;-145.63;55.56
33422;BME280;19763;55.798;37.782;2023-08-30T00:54:26;39059.44;;;-145.63;55.43
33422;BME280;19763;55.798;37.782;2023-08-30T00:56:51;39047.72;;;-145.63;55.39
33422;BME280;19763;55.798;37.782;2023-08-30T00:59:18;39037.94;;;-145.63;55.50
33422;BME280;19763;55.798;37.782;2023-08-30T01:01:44;39020.34;;;-145.63;54.90
33422;BME280;19763;55.798;37.782;2023-08-30T01:04:11;39028.16;;;-145.63;55.10
33422;BME280;19763;55.798;37.782;2023-08-30T01:06:36;39045.75;;;-145.63;54.89
33422;BME280;19763;55.798;37.782;2023-08-30T01:09:03;39067.28;;;-145.63;54.95
33422;BME280;19763;55.798;37.782;2023-08-30T01:14:16;38603.81;;;-145.63;55.12
33422;BME280;19763;55.798;37.782;2023-08-30T01:16:44;39030.13;;;-145.63;55.34
33422;BME280;19763;55.798;37.782;2023-08-30T01:21:54;39034.03;;;-145.63;55.26
33422;BME280;19763;55.798;37.782;2023-08-30T01:24:44;39051.63;;;-145.63;55.22
33422;BME280;19763;55.798;37.782;2023-08-30T01:27:11;39018.38;;;-145.63;55.15
33422;BME280;19763;55.798;37.782;2023-08-30T01:29:42;38560.78;;;-145.63;55.36
33422;BME280;19763;55.798;37.782;2023-08-30T01:32:09;39061.41;;;-145.63;55.06
33422;BME280;19763;55.798;37.782;2023-08-30T01:34:39;39063.34;;;-145.63;55.10
33422;BME280;19763;55.798;37.782;2023-08-30T01:37:07;39102.47;;;-145.63;55.53
33422;BME280;19763;55.798;37.782;2023-08-30T01:39:39;39110.28;;;-145.63;55.57
33422;BME280;19763;55.798;37.782;2023-08-30T01:42:08;39043.81;;;-145.63;55.15
33422;BME280;19763;55.798;37.782;2023-08-30T01:44:35;39034.03;;;-145.63;55.20
33422;BME280;19763;55.798;37.782;2023-08-30T01:47:01;39075.09;;;-145.63;55.32
33422;BME280;19763;55.798;37.782;2023-08-30T01:49:29;39041.84;;;-145.63;55.27
33422;BME280;19763;55.798;37.782;2023-08-30T01:51:57;39061.41;;;-145.63;55.15
33422;BME280;19763;55.798;37.782;2023-08-30T01:54:25;39161.13;;;-145.63;55.19
33422;BME280;19763;55.798;37.782;2023-08-30T01:56:52;39084.88;;;-145.63;54.95
33422;BME280;19763;55.798;37.782;2023-08-30T01:59:17;39053.59;;;-145.63;55.16
33422;BME280;19763;55.798;37.782;2023-08-30T02:01:43;39055.53;;;-145.63;55.46
33422;BME280;19763;55.798;37.782;2023-08-30T02:04:08;39059.44;;;-145.63;55.15
33422;BME280;19763;55.798;37.782;2023-08-30T02:09:21;39055.53;;;-145.63;54.96
33422;BME280;19763;55.798;37.782;2023-08-30T02:11:50;39059.44;;;-145.63;54.59
33422;BME280;19763;55.798;37.782;2023-08-30T02:14:18;39059.44;;;-145.63;54.44
33422;BME280;19763;55.798;37.782;2023-08-30T02:16:46;39063.34;;;-145.63;54.70
33422;BME280;19763;55.798;37.782;2023-08-30T02:19:13;39059.44;;;-145.63;54.38
33422;BME280;19763;55.798;37.782;2023-08-30T02:21:46;39067.28;;;-145.63;54.84
33422;BME280;19763;55.798;37.782;2023-08-30T02:24:11;39055.53;;;-145.63;54.55
33422;BME280;19763;55.798;37.782;2023-08-30T02:26:37;39075.09;;;-145.63;54.76
33422;BME280;19763;55.798;37.782;2023-08-30T02:29:03;39043.81;;;-145.63;54.58
33422;BME280;19763;55.798;37.782;2023-08-30T02:31:29;39067.28;;;-145.63;54.54
33422;BME280;19763;55.798;37.782;2023-08-30T02:33:55;39030.13;;;-145.63;54.46
33422;BME280;19763;55.798;37.782;2023-08-30T02:36:20;39030.13;;;-145.63;54.09
33422;BME280;19763;55.798;37.782;2023-08-30T02:38:46;39077.06;;;-145.63;54.25
33422;BME280;19763;55.798;37.782;2023-08-30T02:41:12;39039.88;;;-145.63;54.01
33422;BME280;19763;55.798;37.782;2023-08-30T02:43:37;39049.66;;;-145.63;54.14
33422;BME280;19763;55.798;37.782;2023-08-30T02:46:03;39077.06;;;-145.63;53.88
33422;BME280;19763;55.798;37.782;2023-08-30T02:48:31;39075.09;;;-145.63;53.84
33422;BME280;19763;55.798;37.782;2023-08-30T02:50:57;39063.34;;;-145.63;54.09
33422;BME280;19763;55.798;37.782;2023-08-30T02:53:23;39092.69;;;-145.63;53.81
33422;BME280;19763;55.798;37.782;2023-08-30T02:55:49;39055.53;;;-145.63;53.80
33422;BME280;19763;55.798;37.782;2023-08-30T02:58:14;39061.41;;;-145.63;53.90
33422;BME280;19763;55.798;37.782;2023-08-30T03:00:40;39006.66;;;-145.63;54.16
33422;BME280;19763;55.798;37.782;2023-08-30T03:03:06;39067.28;;;-145.63;53.94
33422;BME280;19763;55.798;37.782;2023-08-30T03:05:31;39086.81;;;-145.63;54.35
33422;BME280;19763;55.798;37.782;2023-08-30T03:07:57;39061.41;;;-145.63;54.24
33422;BME280;19763;55.798;37.782;2023-08-30T03:10:24;39080.97;;;-145.63;53.65
33422;BME280;19763;55.798;37.782;2023-08-30T03:12:50;39075.09;;;-145.63;53.77
33422;BME280;19763;55.798;37.782;2023-08-30T03:15:15;39063.34;;;-145.63;53.67
33422;BME280;19763;55.798;37.782;2023-08-30T03:17:41;39077.06;;;-145.63;53.82
33422;BME280;19763;55.798;37.782;2023-08-30T03:20:07;39080.97;;;-145.63;53.97
33422;BME280;19763;55.798;37.782;2023-08-30T03:22:33;39055.53;;;-145.63;53.99
33422;BME280;19763;55.798;37.782;2023-08-30T03:24:58;39059.44;;;-145.63;53.56
33422;BME280;19763;55.798;37.782;2023-08-30T03:27:25;39106.38;;;-145.63;53.50
33422;BME280;19763;55.798;37.782;2023-08-30T03:29:50;39071.19;;;-145.63;53.88
33422;BME280;19763;55.798;37.782;2023-08-30T03:32:17;39073.13;;;-145.63;53.83
33422;BME280;19763;55.798;37.782;2023-08-30T03:34:44;39051.63;;;-145.63;53.98
33422;BME280;19763;55.798;37.782;2023-08-30T03:37:11;39055.53;;;-145.63;53.41
33422;BME280;19763;55.798;37.782;2023-08-30T03:39:37;39092.69;;;-145.63;53.86
33422;BME280;19763;55.798;37.782;2023-08-30T03:42:03;39071.19;;;-145.63;53.49
33422;BME280;19763;55.798;37.782;2023-08-30T03:44:29;39094.66;;;-145.63;53.32
33422;BME280;19763;55.798;37.782;2023-08-30T03:46:54;39075.09;;;-145.63;53.38
33422;BME280;19763;55.798;37.782;2023-08-30T03:49:22;39106.38;;;-145.63;52.99
33422;BME280;19763;55.798;37.782;2023-08-30T03:51:48;39094.66;;;-145.63;52.59
33422;BME280;19763;55.798;37.782;2023-08-30T03:54:13;39055.53;;;-145.63;52.90
33422;BME280;19763;55.798;37.782;2023-08-30T03:56:42;39079.00;;;-145.63;52.81
33422;BME280;19763;55.798;37.782;2023-08-30T03:59:08;39079.00;;;-145.63;52.88
33422;BME280;19763;55.798;37.782;2023-08-30T04:01:33;39116.16;;;-145.63;53.10
33422;BME280;19763;55.798;37.782;2023-08-30T04:03:59;39106.38;;;-145.63;52.87
33422;BME280;19763;55.798;37.782;2023-08-30T04:06:25;39090.75;;;-145.63;52.96
33422;BME280;19763;55.798;37.782;2023-08-30T04:08:50;39102.47;;;-145.63;52.90
33422;BME280;19763;55.798;37.782;2023-08-30T04:11:16;39084.88;;;-145.63;52.77
33422;BME280;19763;55.798;37.782;2023-08-30T04:13:41;39055.53;;;-145.63;52.65
33422;BME280;19763;55.798;37.782;2023-08-30T04:16:07;39094.66;;;-145.63;52.65
33422;BME280;19763;55.798;37.782;2023-08-30T04:18:33;39094.66;;;-145.63;52.25
33422;BME280;19763;55.798;37.782;2023-08-30T04:20:58;39092.69;;;-145.63;52.42
33422;BME280;19763;55.798;37.782;2023-08-30T04:23:24;39192.44;;;-145.63;52.77
33422;BME280;19763;55.798;37.782;2023-08-30T04:25:50;39110.28;;;-145.63;52.50
33422;BME280;19763;55.798;37.782;2023-08-30T04:28:16;39075.09;;;-145.63;52.69
33422;BME280;19763;55.798;37.782;2023-08-30T04:30:41;39057.50;;;-145.63;52.90
33422;BME280;19763;55.798;37.782;2023-08-30T04:33:07;39084.88;;;-145.63;52.50
33422;BME280;19763;55.798;37.782;2023-08-30T04:35:32;39098.56;;;-145.63;52.74
33422;BME280;19763;55.798;37.782;2023-08-30T04:37:59;39127.91;;;-145.63;52.79
33422;BME280;19763;55.798;37.782;2023-08-30T04:40:25;39094.66;;;-145.63;52.86
33422;BME280;19763;55.798;37.782;2023-08-30T04:42:51;39067.28;;;-145.63;52.59
33422;BME280;19763;55.798;37.782;2023-08-30T04:45:16;39106.38;;;-145.63;52.45
33422;BME280;19763;55.798;37.782;2023-08-30T04:47:42;39082.91;;;-145.63;52.91
33422;BME280;19763;55.798;37.782;2023-08-30T04:50:11;39075.09;;;-145.63;52.02
33422;BME280;19763;55.798;37.782;2023-08-30T04:52:36;39088.78;;;-145.63;52.11
33422;BME280;19763;55.798;37.782;2023-08-30T04:55:02;39104.44;;;-145.63;51.92
33422;BME280;19763;55.798;37.782;2023-08-30T04:57:31;39098.56;;;-145.63;51.98
33422;BME280;19763;55.798;37.782;2023-08-30T04:59:56;39080.97;;;-145.63;51.89
33422;BME280;19763;55.798;37.782;2023-08-30T05:02:22;39112.25;;;-145.63;51.55
33422;BME280;19763;55.798;37.782;2023-08-30T05:04:48;39082.91;;;-145.63;51.83
33422;BME280;19763;55.798;37.782;2023-08-30T05:07:14;39082.91;;;-145.63;51.63
33422;BME280;19763;55.798;37.782;2023-08-30T05:09:39;39082.91;;;-145.63;52.29
33422;BME280;19763;55.798;37.782;2023-08-30T05:12:06;39059.44;;;-145.63;52.02
33422;BME280;19763;55.798;37.782;2023-08-30T05:14:32;39094.66;;;-145.63;51.68
33422;BME280;19763;55.798;37.782;2023-08-30T05:16:58;39063.34;;;-145.63;51.70
33422;BME280;19763;55.798;37.782;2023-08-30T05:19:23;39069.22;;;-145.63;51.66
33422;BME280;19763;55.798;37.782;2023-08-30T05:21:49;39082.91;;;-145.63;51.85
33422;BME280;19763;55.798;37.782;2023-08-30T05:24:21;39120.06;;;-145.63;51.69
33422;BME280;19763;55.798;37.782;2023-08-30T05:26:47;39094.66;;;-145.63;51.69
33422;BME280;19763;55.798;37.782;2023-08-30T05:29:14;39063.34;;;-145.63;51.46
33422;BME280;19763;55.798;37.782;2023-08-30T05:31:41;39057.50;;;-145.63;51.48
33422;BME280;19763;55.798;37.782;2023-08-30T05:34:07;39063.34;;;-145.63;51.33
33422;BME280;19763;55.798;37.782;2023-08-30T05:36:32;39106.38;;;-145.63;51.56
33422;BME280;19763;55.798;37.782;2023-08-30T05:38:58;39090.75;;;-145.63;51.32
33422;BME280;19763;55.798;37.782;2023-08-30T05:41:24;39082.91;;;-145.63;51.79
33422;BME280;19763;55.798;37.782;2023-08-30T05:43:51;39094.66;;;-145.63;51.87
33422;BME280;19763;55.798;37.782;2023-08-30T05:46:16;39071.19;;;-145.63;52.16
33422;BME280;19763;55.798;37.782;2023-08-30T05:48:42;39084.88;;;-145.63;52.56
33422;BME280;19763;55.798;37.782;2023-08-30T05:51:08;39075.09;;;-145.63;51.99
33422;BME280;19763;55.798;37.782;2023-08-30T05:53:34;39039.88;;;-145.63;51.91
33422;BME280;19763;55.798;37.782;2023-08-30T05:55:59;39094.66;;;-145.63;51.72
33422;BME280;19763;55.798;37.782;2023-08-30T05:58:25;39114.22;;;-145.63;51.79
33422;BME280;19763;55.798;37.782;2023-08-30T06:00:50;39051.63;;;-145.63;51.79
33422;BME280;19763;55.798;37.782;2023-08-30T06:03:16;39094.66;;;-145.63;51.89
33422;BME280;19763;55.798;37.782;2023-08-30T06:05:42;39053.59;;;-145.63;51.72
33422;BME280;19763;55.798;37.782;2023-08-30T06:08:08;39055.53;;;-145.63;51.52
33422;BME280;19763;55.798;37.782;2023-08-30T06:10:36;39065.31;;;-145.63;51.84
33422;BME280;19763;55.798;37.782;2023-08-30T06:13:02;39077.06;;;-145.63;51.20
33422;BME280;19763;55.798;37.782;2023-08-30T06:15:30;39059.44;;;-145.63;51.50
33422;BME280;19763;55.798;37.782;2023-08-30T06:17:56;39039.88;;;-145.63;51.35
33422;BME280;19763;55.798;37.782;2023-08-30T06:20:21;39065.31;;;-145.63;51.25
33422;BME280;19763;55.798;37.782;2023-08-30T06:22:47;39043.81;;;-145.63;50.91
33422;BME280;19763;55.798;37.782;2023-08-30T06:25:13;39088.78;;;-145.63;51.10
33422;BME280;19763;55.798;37.782;2023-08-30T06:27:55;39106.38;;;-145.63;51.16
33422;BME280;19763;55.798;37.782;2023-08-30T06:30:21;39055.53;;;-145.63;51.26
33422;BME280;19763;55.798;37.782;2023-08-30T06:32:48;39051.63;;;-145.63;50.97
33422;BME280;19763;55.798;37.782;2023-08-30T06:35:14;39055.53;;;-145.63;50.72
33422;BME280;19763;55.798;37.782;2023-08-30T06:37:40;39030.13;;;-145.63;51.37
33422;BME280;19763;55.798;37.782;2023-08-30T06:40:06;39010.56;;;-145.63;51.14
33422;BME280;19763;55.798;37.782;2023-08-30T06:42:32;38994.91;;;-145.63;50.57
33422;BME280;19763;55.798;37.782;2023-08-30T06:44:58;39051.63;;;-145.63;51.10
33422;BME280;19763;55.798;37.782;2023-08-30T06:47:23;39034.03;;;-145.63;50.78
33422;BME280;19763;55.798;37.782;2023-08-30T06:49:49;39053.59;;;-145.63;50.95
33422;BME280;19763;55.798;37.782;2023-08-30T06:52:15;38103.25;;;-145.63;50.76
33422;BME280;19763;55.798;37.782;2023-08-30T06:54:40;39098.56;;;-145.63;51.33
33422;BME280;19763;55.798;37.782;2023-08-30T06:57:06;39080.97;;;-145.63;51.26
33422;BME280;19763;55.798;37.782;2023-08-30T06:59:32;39098.56;;;-145.63;51.94
33422;BME280;19763;55.798;37.782;2023-08-30T07:01:58;39047.72;;;-145.63;50.72
33422;BME280;19763;55.798;37.782;2023-08-30T07:04:24;39043.81;;;-145.63;51.21
33422;BME280;19763;55.798;37.782;2023-08-30T07:06:50;39043.81;;;-145.63;51.17
33422;BME280;19763;55.798;37.782;2023-08-30T07:09:16;39018.38;;;-145.63;51.10
33422;BME280;19763;55.798;37.782;2023-08-30T07:11:43;39032.06;;;-145.63;51.22
33422;BME280;19763;55.798;37.782;2023-08-30T07:14:12;39063.34;;;-145.63;49.84
33422;BME280;19763;55.798;37.782;2023-08-30T07:16:40;39039.88;;;-145.63;50.24
33422;BME280;19763;55.798;37.782;2023-08-30T07:19:06;38991.00;;;-145.63;50.21
33422;BME280;19763;55.798;37.782;2023-08-30T07:21:32;39022.28;;;-145.63;49.57
33422;BME280;19763;55.798;37.782;2023-08-30T07:23:58;39086.81;;;-145.63;49.95
33422;BME280;19763;55.798;37.782;2023-08-30T07:26:24;39024.25;;;-145.63;50.16
33422;BME280;19763;55.798;37.782;2023-08-30T07:28:49;39000.78;;;-145.63;50.05
33422;BME280;19763;55.798;37.782;2023-08-30T07:31:15;39028.16;;;-145.63;50.35
33422;BME280;19763;55.798;37.782;2023-08-30T07:33:44;39020.34;;;-145.63;50.41
33422;BME280;19763;55.798;37.782;2023-08-30T07:36:10;39059.44;;;-145.63;50.44
33422;BME280;19763;55.798;37.782;2023-08-30T07:38:37;39026.19;;;-145.63;50.68
33422;BME280;19763;55.798;37.782;2023-08-30T07:41:02;39059.44;;;-145.63;51.08
33422;BME280;19763;55.798;37.782;2023-08-30T07:43:28;39041.84;;;-145.63;50.89
33422;BME280;19763;55.798;37.782;2023-08-30T07:45:54;39080.97;;;-145.63;51.54
33422;BME280;19763;55.798;37.782;2023-08-30T07:48:19;39063.34;;;-145.63;51.47
33422;BME280;19763;55.798;37.782;2023-08-30T07:50:45;39057.50;;;-145.63;51.34
33422;BME280;19763;55.798;37.782;2023-08-30T07:53:11;39071.19;;;-145.63;51.22
33422;BME280;19763;55.798;37.782;2023-08-30T07:55:37;39047.72;;;-145.63;51.35
33422;BME280;19763;55.798;37.782;2023-08-30T07:58:03;39041.84;;;-145.63;51.22
33422;BME280;19763;55.798;37.782;2023-08-30T08:00:29;39061.41;;;-145.63;50.95
33422;BME280;19763;55.798;37.782;2023-08-30T08:02:55;39067.28;;;-145.63;51.33
33422;BME280;19763;55.798;37.782;2023-08-30T08:05:21;39039.88;;;-145.63;50.55
33422;BME280;19763;55.798;37.782;2023-08-30T08:07:52;39067.28;;;-145.63;50.38
33422;BME280;19763;55.798;37.782;2023-08-30T08:10:19;38992.97;;;-145.63;50.33
33422;BME280;19763;55.798;37.782;2023-08-30T08:12:45;38928.44;;;-145.63;49.78
33422;BME280;19763;55.798;37.782;2023-08-30T08:15:11;38975.34;;;-145.63;49.46
33422;BME280;19763;55.798;37.782;2023-08-30T08:17:37;38928.44;;;-145.63;49.23
33422;BME280;19763;55.798;37.782;2023-08-30T08:20:04;38897.13;;;-145.63;49.00
33422;BME280;19763;55.798;37.782;2023-08-30T08:22:31;38906.91;;;-145.63;49.14
33422;BME280;19763;55.798;37.782;2023-08-30T08:24:56;38940.16;;;-145.63;48.03
33422;BME280;19763;55.798;37.782;2023-08-30T08:27:24;38922.56;;;-145.63;46.50
33422;BME280;19763;55.798;37.782;2023-08-30T08:29:50;38985.13;;;-145.63;47.17
33422;BME280;19763;55.798;37.782;2023-08-30T08:32:16;38949.94;;;-145.63;46.99
33422;BME280;19763;55.798;37.782;2023-08-30T08:34:42;38940.16;;;-145.63;47.07
33422;BME280;19763;55.798;37.782;2023-08-30T08:37:07;38955.81;;;-145.63;47.67
33422;BME280;19763;55.798;37.782;2023-08-30T08:39:33;38930.38;;;-145.63;47.65
33422;BME280;19763;55.798;37.782;2023-08-30T08:41:59;38736.78;;;-145.63;46.98
33422;BME280;19763;55.798;37.782;2023-08-30T08:44:26;38926.47;;;-145.63;47.26
33422;BME280;19763;55.798;37.782;2023-08-30T08:46:56;38856.06;;;-145.63;47.12
33422;BME280;19763;55.798;37.782;2023-08-30T08:49:23;38858.03;;;-145.63;45.50
33422;BME280;19763;55.798;37.782;2023-08-30T08:51:53;38850.19;;;-145.63;45.86
33422;BME280;19763;55.798;37.782;2023-08-30T08:54:20;38881.50;;;-145.63;46.26
33422;BME280;19763;55.798;37.782;2023-08-30T08:56:46;38818.91;;;-145.63;45.93
33422;BME280;19763;55.798;37.782;2023-08-30T08:59:12;38879.53;;;-145.63;45.64
33422;BME280;19763;55.798;37.782;2023-08-30T09:01:38;38867.81;;;-145.63;45.31
33422;BME280;19763;55.798;37.782;2023-08-30T09:04:10;38832.59;;;-145.63;44.98
33422;BME280;19763;55.798;37.782;2023-08-30T09:06:38;38858.03;;;-145.63;46.00
33422;BME280;19763;55.798;37.782;2023-08-30T09:09:05;38914.72;;;-145.63;46.09
33422;BME280;19763;55.798;37.782;2023-08-30T09:11:32;38871.72;;;-145.63;45.92
33422;BME280;19763;55.798;37.782;2023-08-30T09:13:58;38883.44;;;-145.63;45.68
33422;BME280;19763;55.798;37.782;2023-08-30T09:16:24;38895.19;;;-145.63;45.70
33422;BME280;19763;55.798;37.782;2023-08-30T09:18:59;38877.56;;;-145.63;44.96
33422;BME280;19763;55.798;37.782;2023-08-30T09:21:26;38822.81;;;-145.63;45.23
33422;BME280;19763;55.798;37.782;2023-08-30T09:24:02;38771.97;;;-145.63;43.69
33422;BME280;19763;55.798;37.782;2023-08-30T09:26:30;38770.03;;;-145.63;43.11
33422;BME280;19763;55.798;37.782;2023-08-30T09:29:05;38785.66;;;-145.63;43.78
33422;BME280;19763;55.798;37.782;2023-08-30T09:31:38;38770.03;;;-145.63;43.17
33422;BME280;19763;55.798;37.782;2023-08-30T09:34:06;38758.28;;;-145.63;43.47
33422;BME280;19763;55.798;37.782;2023-08-30T09:36:41;38803.28;;;-145.63;43.38
33422;BME280;19763;55.798;37.782;2023-08-30T09:39:12;38820.88;;;-145.63;43.45
33422;BME280;19763;55.798;37.782;2023-08-30T09:41:46;38789.59;;;-145.63;43.60
33422;BME280;19763;55.798;37.782;2023-08-30T09:44:13;38805.22;;;-145.63;43.72
33422;BME280;19763;55.798;37.782;2023-08-30T09:46:44;38949.94;;;-145.63;43.85
33422;BME280;19763;55.798;37.782;2023-08-30T09:49:11;38801.31;;;-145.63;43.47
33422;BME280;19763;55.798;37.782;2023-08-30T09:51:41;38838.47;;;-145.63;43.26
33422;BME280;19763;55.798;37.782;2023-08-30T09:54:18;38848.25;;;-145.63;44.05
33422;BME280;19763;55.798;37.782;2023-08-30T09:56:45;38842.38;;;-145.63;43.89
33422;BME280;19763;55.798;37.782;2023-08-30T09:59:12;38801.31;;;-145.63;44.05
33422;BME280;19763;55.798;37.782;2023-08-30T10:01:41;38828.69;;;-145.63;43.96
33422;BME280;19763;55.798;37.782;2023-08-30T10:04:07;38775.91;;;-145.63;43.39
33422;BME280;19763;55.798;37.782;2023-08-30T10:06:35;38748.50;;;-145.63;43.15
33422;BME280;19763;55.798;37.782;2023-08-30T10:09:01;38779.81;;;-145.63;43.00
33422;BME280;19763;55.798;37.782;2023-08-30T10:11:29;38734.81;;;-145.63;43.83
33422;BME280;19763;55.798;37.782;2023-08-30T10:13:55;38746.56;;;-145.63;42.96
33422;BME280;19763;55.798;37.782;2023-08-30T10:16:23;38768.06;;;-145.63;43.57
33422;BME280;19763;55.798;37.782;2023-08-30T10:18:52;38762.22;;;-145.63;43.59
33422;BME280;19763;55.798;37.782;2023-08-30T10:21:20;38773.94;;;-145.63;43.85
33422;BME280;19763;55.798;37.782;2023-08-30T10:23:48;38762.22;;;-145.63;43.79
33422;BME280;19763;55.798;37.782;2023-08-30T10:26:17;38725.06;;;-145.63;42.60
33422;BME280;19763;55.798;37.782;2023-08-30T10:28:47;38771.97;;;-145.63;42.22
33422;BME280;19763;55.798;37.782;2023-08-30T10:31:13;38773.94;;;-145.63;42.94
33422;BME280;19763;55.798;37.782;2023-08-30T10:34:15;38740.69;;;-145.63;43.42
33422;BME280;19763;55.798;37.782;2023-08-30T10:36:44;38535.38;;;-145.63;42.37
33422;BME280;19763;55.798;37.782;2023-08-30T10:39:11;38742.66;;;-145.63;43.74
33422;BME280;19763;55.798;37.782;2023-08-30T10:41:38;38746.56;;;-145.63;43.66
33422;BME280;19763;55.798;37.782;2023-08-30T10:44:03;38789.59;;;-145.63;42.70
33422;BME280;19763;55.798;37.782;2023-08-30T10:46:31;38756.34;;;-145.63;42.49
33422;BME280;19763;55.798;37.782;2023-08-30T10:49:14;38715.28;;;-145.63;42.25
33422;BME280;19763;55.798;37.782;2023-08-30T10:51:40;38691.81;;;-145.63;42.51
33422;BME280;19763;55.798;37.782;2023-08-30T10:54:16;38734.81;;;-145.63;42.75
33422;BME280;19763;55.798;37.782;2023-08-30T10:57:02;38699.63;;;-145.63;41.35
33422;BME280;19763;55.798;37.782;2023-08-30T10:59:28;38736.78;;;-145.63;41.00
33422;BME280;19763;55.798;37.782;2023-08-30T11:01:55;38717.22;;;-145.63;41.57
33422;BME280;19763;55.798;37.782;2023-08-30T11:04:22;38705.50;;;-145.63;41.82
33422;BME280;19763;55.798;37.782;2023-08-30T11:06:50;38703.53;;;-145.63;42.02
33422;BME280;19763;55.798;37.782;2023-08-30T11:09:18;38750.47;;;-145.63;42.09
33422;BME280;19763;55.798;37.782;2023-08-30T11:11:45;38652.69;;;-145.63;41.95
33422;BME280;19763;55.798;37.782;2023-08-30T11:14:11;38670.28;;;-145.63;41.63
33422;BME280;19763;55.798;37.782;2023-08-30T11:16:38;38793.50;;;-145.63;42.10
33422;BME280;19763;55.798;37.782;2023-08-30T11:19:05;38674.22;;;-145.63;41.39
33422;BME280;19763;55.798;37.782;2023-08-30T11:21:32;38644.88;;;-145.63;41.63
33422;BME280;19763;55.798;37.782;2023-08-30T11:23:58;38685.94;;;-145.63;41.57
33422;BME280;19763;55.798;37.782;2023-08-30T11:26:24;38640.97;;;-145.63;41.35
33422;BME280;19763;55.798;37.782;2023-08-30T11:28:50;38621.41;;;-145.63;41.37
33422;BME280;19763;55.798;37.782;2023-08-30T11:31:21;38611.63;;;-145.63;41.69
33422;BME280;19763;55.798;37.782;2023-08-30T11:33:55;38597.94;;;-145.63;41.83
33422;BME280;19763;55.798;37.782;2023-08-30T11:36:23;38629.22;;;-145.63;40.98
33422;BME280;19763;55.798;37.782;2023-08-30T11:38:49;38676.16;;;-145.63;41.65
33422;BME280;19763;55.798;37.782;2023-08-30T11:41:16;38572.53;;;-145.63;41.67
33422;BME280;19763;55.798;37.782;2023-08-30T11:43:43;38664.44;;;-145.63;40.68
33422;BME280;19763;55.798;37.782;2023-08-30T11:46:09;38637.06;;;-145.63;41.04
33422;BME280;19763;55.798;37.782;2023-08-30T11:48:35;38687.91;;;-145.63;40.94
33422;BME280;19763;55.798;37.782;2023-08-30T11:51:01;38687.91;;;-145.63;41.06
33422;BME280;19763;55.798;37.782;2023-08-30T11:53:27;38601.84;;;-145.63;42.05
33422;BME280;19763;55.798;37.782;2023-08-30T11:55:53;38685.94;;;-145.63;41.63
33422;BME280;19763;55.798;37.782;2023-08-30T11:58:19;38674.22;;;-145.63;41.40
33422;BME280;19763;55.798;37.782;2023-08-30T12:00:45;38629.22;;;-145.63;41.16
33422;BME280;19763;55.798;37.782;2023-08-30T12:03:14;38656.59;;;-145.63;41.00
33422;BME280;19763;55.798;37.782;2023-08-30T12:05:50;38637.06;;;-145.63;41.46
33422;BME280;19763;55.798;37.782;2023-08-30T12:08:20;38644.88;;;-145.63;41.49
33422;BME280;19763;55.798;37.782;2023-08-30T12:10:46;38672.25;;;-145.63;41.53
33422;BME280;19763;55.798;37.782;2023-08-30T12:13:25;38656.59;;;-145.63;41.22
33422;BME280;19763;55.798;37.782;2023-08-30T12:15:52;38607.72;;;-145.63;41.26
33422;BME280;19763;55.798;37.782;2023-08-30T12:18:26;38625.31;;;-145.63;42.02
33422;BME280;19763;55.798;37.782;2023-08-30T12:20:56;38656.59;;;-145.63;41.46
33422;BME280;19763;55.798;37.782;2023-08-30T12:23:23;38670.28;;;-145.63;41.91
33422;BME280;19763;55.798;37.782;2023-08-30T12:25:59;38672.25;;;-145.63;40.87
33422;BME280;19763;55.798;37.782;2023-08-30T12:28:26;38707.44;;;-145.63;41.14
33422;BME280;19763;55.798;37.782;2023-08-30T12:30:53;38674.22;;;-145.63;40.97
33422;BME280;19763;55.798;37.782;2023-08-30T12:33:21;38642.91;;;-145.63;41.07
33422;BME280;19763;55.798;37.782;2023-08-30T12:35:47;38680.06;;;-145.63;41.02
33422;BME280;19763;55.798;37.782;2023-08-30T12:38:13;38660.53;;;-145.63;41.46